createdAt,value
2022-11-05T00:08:08.857Z,95717.50
2022-11-05T00:18:12.890Z,95729.22
2022-11-05T00:28:15.324Z,95745.97
2022-11-05T00:38:19.073Z,95750.00
2022-11-05T00:48:38.830Z,95759.94
2022-11-05T00:58:42.605Z,95773.91
2022-11-05T01:08:45.711Z,95777.28
2022-11-05T01:18:49.512Z,95794.66
2022-11-05T01:28:52.856Z,95797.94
2022-11-05T01:38:56.678Z,95801.75
2022-11-05T01:49:03.640Z,95804.19
2022-11-05T01:59:09.311Z,95803.94
2022-11-05T02:09:14.099Z,95809.22
2022-11-05T02:19:34.409Z,95811.91
2022-11-05T02:29:59.287Z,95814.13
2022-11-05T02:40:07.770Z,95808.78
2022-11-05T02:50:15.405Z,95824.06
2022-11-05T03:00:51.023Z,95826.81
2022-11-05T03:10:58.965Z,95813.00
2022-11-05T03:21:04.348Z,95835.97
2022-11-05T03:31:08.984Z,95851.78
2022-11-05T03:41:14.491Z,95856.16
2022-11-05T03:51:21.993Z,95871.69
2022-11-05T04:01:24.824Z,95878.09
2022-11-05T04:11:46.625Z,95891.09
2022-11-05T04:22:08.851Z,95898.50
2022-11-05T04:32:12.603Z,95908.84
2022-11-05T04:42:15.036Z,95918.59
2022-11-05T04:52:18.810Z,95920.53
2022-11-05T05:02:21.255Z,95932.13
2022-11-05T05:12:25.671Z,95940.75
2022-11-05T05:22:28.119Z,95957.69
2022-11-05T05:32:31.970Z,95968.69
2022-11-05T05:42:37.568Z,95983.91
2022-11-05T05:52:45.587Z,95985.84
2022-11-05T06:02:48.197Z,95999.09
2022-11-05T06:12:52.067Z,96012.44
2022-11-05T06:22:57.623Z,96003.72
2022-11-05T06:33:04.624Z,96013.72
2022-11-05T06:43:07.154Z,96035.63
2022-11-05T06:53:11.512Z,96060.31
2022-11-05T07:03:14.731Z,96069.38
2022-11-05T07:13:18.983Z,96085.16
2022-11-05T07:23:21.387Z,96109.91
2022-11-05T07:33:25.112Z,96125.41
2022-11-05T07:43:27.525Z,96131.09
2022-11-05T07:53:31.269Z,96143.72
2022-11-05T08:03:34.213Z,96159.00
2022-11-05T08:13:38.465Z,96167.13
2022-11-05T08:23:42.561Z,96174.44
2022-11-05T08:33:46.316Z,96181.75
2022-11-05T08:43:48.741Z,96195.09
2022-11-05T08:53:52.493Z,96196.03
2022-11-05T09:03:54.920Z,96205.44
2022-11-05T09:14:00.874Z,96214.00
2022-11-05T09:24:03.263Z,96221.44
2022-11-05T09:34:07.177Z,96232.94
2022-11-05T09:44:12.662Z,96225.16
2022-11-05T09:54:16.554Z,96244.44
2022-11-05T10:04:20.616Z,96254.91
2022-11-05T10:14:26.921Z,96261.88
2022-11-05T10:24:29.330Z,96281.03
2022-11-05T10:34:34.453Z,96278.97
2022-11-05T10:44:38.770Z,96277.22
2022-11-05T10:54:42.675Z,96286.88
2022-11-05T11:04:45.084Z,96290.34
2022-11-05T11:15:01.045Z,96301.97
2022-11-05T11:25:18.917Z,96299.84
2022-11-05T11:35:23.921Z,96305.34
2022-11-05T11:45:28.750Z,96300.47
2022-11-05T11:55:32.568Z,96297.91
2022-11-05T12:05:37.524Z,96306.03
2022-11-05T12:15:44.189Z,96308.72
2022-11-05T12:25:51.475Z,96297.31
2022-11-05T12:36:10.497Z,96299.75
2022-11-05T12:46:21.899Z,96303.59
2022-11-05T12:56:31.731Z,96317.66
2022-11-05T13:06:37.213Z,96321.84
2022-11-05T13:16:42.655Z,96319.66
2022-11-05T13:26:48.170Z,96316.16
2022-11-05T13:37:12.849Z,96313.94
2022-11-05T13:47:23.751Z,96323.59
2022-11-05T13:57:36.344Z,96323.59
2022-11-05T14:07:44.877Z,96331.59
2022-11-05T14:17:59.607Z,96327.44
2022-11-05T14:28:02.061Z,96321.50
2022-11-05T14:38:07.690Z,96338.47
2022-11-05T14:48:26.681Z,96355.56
2022-11-05T14:58:31.936Z,96355.44
2022-11-05T15:08:37.640Z,96352.97
2022-11-05T15:18:45.156Z,96358.69
2022-11-05T15:28:48.897Z,96364.00
2022-11-05T15:39:15.528Z,96358.66
2022-11-05T15:49:16.219Z,96364.69
2022-11-05T15:59:20.737Z,96373.41
2022-11-05T16:09:24.401Z,96361.84
2022-11-05T16:19:40.895Z,96381.94
2022-11-05T16:29:48.449Z,96382.19
2022-11-05T16:39:52.442Z,96396.09
2022-11-05T16:49:54.913Z,96399.72
2022-11-05T16:59:59.626Z,96408.31
2022-11-05T17:10:02.004Z,96416.91
2022-11-05T17:20:06.401Z,96415.13
2022-11-05T17:30:10.124Z,96435.69
2022-11-05T17:40:15.917Z,96427.59
2022-11-05T17:50:18.429Z,96437.06
2022-11-05T18:00:23.146Z,96450.00
2022-11-05T18:10:25.903Z,96462.03
2022-11-05T18:20:31.437Z,96464.88
2022-11-05T18:30:34.192Z,96466.19
2022-11-05T18:40:37.969Z,96473.69
2022-11-05T18:50:40.638Z,96474.28
2022-11-05T19:00:46.460Z,96467.75
2022-11-05T19:10:51.354Z,96464.91
2022-11-05T19:20:55.078Z,96459.44
2022-11-05T19:30:57.506Z,96445.81
2022-11-05T19:41:03.526Z,96434.75
2022-11-05T19:51:09.470Z,96455.28
2022-11-05T20:01:13.904Z,96462.66
2022-11-05T20:11:16.571Z,96455.53
2022-11-05T20:21:20.667Z,96474.41
2022-11-05T20:31:23.560Z,96475.25
2022-11-05T20:41:27.656Z,96488.59
2022-11-05T20:51:30.047Z,96492.28
2022-11-05T21:01:34.318Z,96497.00
2022-11-05T21:11:50.833Z,96497.97
2022-11-05T21:21:54.574Z,96481.84
2022-11-05T21:31:56.983Z,96487.22
2022-11-05T21:42:00.742Z,96490.91
2022-11-05T21:52:20.965Z,96480.09
2022-11-05T22:02:28.362Z,96482.34
2022-11-05T22:12:32.116Z,96474.78
2022-11-05T22:22:35.905Z,96461.72
2022-11-05T22:32:38.617Z,96455.97
2022-11-05T22:42:42.400Z,96453.31
2022-11-05T22:52:44.821Z,96454.75
2022-11-05T23:02:48.711Z,96451.25
2022-11-05T23:12:53.058Z,96445.13
2022-11-05T23:23:14.710Z,96434.34
2022-11-05T23:33:17.241Z,96419.44
2022-11-05T23:43:38.193Z,96431.28
2022-11-05T23:53:41.912Z,96412.06
